Time;durP1;ratioP1;P1;durP2;ratioP2;P2;SDS_P1;SDS_P2;PMS_P1;PMS_P2;Temp;Humidity;BMP_temperature;BMP_pressure;BME280_temperature;BME280_humidity;BME280_pressure;Samples;Min_cycle;Max_cycle;Signal;HPM_P1;HPM_P2
2023/09/03 00:02:11;;;;;;;30.35;17.90;;;;;;;;;;5001114;28;20361;-74
2023/09/03 00:04:36;;;;;;;31.20;17.40;;;;;;;;;;5008573;28;20057;-74
2023/09/03 00:07:02;;;;;;;37.15;18.40;;;;;;;;;;5010526;28;20304;-74
2023/09/03 00:09:27;;;;;;;27.40;16.42;;;;;;;;;;5001943;28;20034;-74
2023/09/03 00:11:52;;;;;;;31.37;17.63;;;;;;;;;;5006026;28;20029;-74
2023/09/03 00:14:17;;;;;;;27.83;17.83;;;;;;;;;;5004117;28;20272;-74
2023/09/03 00:16:42;;;;;;;28.33;17.53;;;;;;;;;;5005871;28;20785;-74
2023/09/03 00:19:08;;;;;;;26.53;17.03;;;;;;;;;;5006373;28;20080;-74
2023/09/03 00:21:33;;;;;;;32.00;17.20;;;;;;;;;;5005143;28;20539;-74
2023/09/03 00:23:59;;;;;;;33.23;17.87;;;;;;;;;;5003763;28;20113;-74
2023/09/03 00:26:26;;;;;;;26.83;17.02;;;;;;;;;;5004190;28;20284;-74
2023/09/03 00:28:51;;;;;;;30.35;16.90;;;;;;;;;;5001862;28;20028;-74
2023/09/03 00:31:17;;;;;;;33.30;17.83;;;;;;;;;;5008990;28;20598;-74
2023/09/03 00:33:42;;;;;;;33.47;18.35;;;;;;;;;;5004779;28;20022;-74
2023/09/03 00:36:13;;;;;;;31.17;16.52;;;;;;;;;;5003021;28;20074;-74
2023/09/03 00:38:38;;;;;;;38.72;18.45;;;;;;;;;;5005737;28;20018;-74
2023/09/03 00:41:04;;;;;;;32.78;17.05;;;;;;;;;;5004034;28;20029;-74
2023/09/03 00:43:30;;;;;;;39.00;17.75;;;;;;;;;;5008131;28;20028;-74
2023/09/03 00:45:55;;;;;;;26.63;16.42;;;;;;;;;;5005103;28;20041;-74
2023/09/03 00:48:23;;;;;;;27.33;16.85;;;;;;;;;;5000467;28;20034;-74
2023/09/03 00:50:48;;;;;;;29.40;16.20;;;;;;;;;;5009971;28;20014;-74
2023/09/03 00:53:16;;;;;;;30.98;16.35;;;;;;;;;;5005985;28;20033;-74
2023/09/03 00:55:41;;;;;;;30.33;16.73;;;;;;;;;;5000887;28;20030;-74
2023/09/03 00:58:07;;;;;;;28.90;16.75;;;;;;;;;;5006701;28;20482;-74
2023/09/03 01:00:33;;;;;;;32.90;17.08;;;;;;;;;;5002654;28;20787;-74
2023/09/03 01:03:00;;;;;;;32.05;16.13;;;;;;;;;;5006097;28;20553;-74
2023/09/03 01:05:25;;;;;;;40.45;16.75;;;;;;;;;;5006746;28;20026;-74
2023/09/03 01:07:50;;;;;;;26.20;15.95;;;;;;;;;;5008886;28;20045;-74
2023/09/03 01:10:16;;;;;;;31.63;16.63;;;;;;;;;;5008625;28;20030;-74
2023/09/03 01:12:49;;;;;;;27.48;15.60;;;;;;;;;;5007390;28;20065;-74
2023/09/03 01:15:17;;;;;;;27.05;15.57;;;;;;;;;;5003086;28;20026;-74
2023/09/03 01:17:48;;;;;;;27.02;16.30;;;;;;;;;;5007681;28;20018;-74
2023/09/03 01:20:36;;;;;;;29.63;16.27;;;;;;;;;;5006966;28;20506;-74
2023/09/03 01:23:09;;;;;;;26.42;15.27;;;;;;;;;;4957713;28;20037;-74
2023/09/03 01:25:52;;;;;;;25.65;15.75;;;;;;;;;;5007418;28;20059;-74
2023/09/03 01:28:18;;;;;;;37.90;15.80;;;;;;;;;;5006169;28;20018;-74
2023/09/03 01:30:43;;;;;;;25.60;14.77;;;;;;;;;;4998060;28;20483;-74
2023/09/03 01:33:09;;;;;;;26.00;15.50;;;;;;;;;;5001507;28;20026;-74
2023/09/03 01:35:34;;;;;;;24.15;14.63;;;;;;;;;;5009985;28;20041;-74
2023/09/03 01:37:59;;;;;;;28.83;14.32;;;;;;;;;;5009533;28;20018;-73
2023/09/03 01:40:24;;;;;;;26.02;14.48;;;;;;;;;;5001117;28;20360;-74
2023/09/03 01:42:50;;;;;;;25.37;15.87;;;;;;;;;;4997558;28;20544;-74
2023/09/03 01:45:15;;;;;;;24.93;15.03;;;;;;;;;;5006891;28;20261;-74
2023/09/03 01:47:53;;;;;;;26.95;15.38;;;;;;;;;;5000093;28;20293;-74
2023/09/03 01:50:25;;;;;;;26.75;16.02;;;;;;;;;;5003810;28;20076;-74
2023/09/03 01:52:56;;;;;;;25.08;15.23;;;;;;;;;;5002949;28;20113;-74
2023/09/03 01:55:22;;;;;;;25.33;15.95;;;;;;;;;;4987089;28;20022;-74
2023/09/03 01:57:49;;;;;;;22.30;14.15;;;;;;;;;;5008258;28;20471;-74
2023/09/03 02:00:16;;;;;;;23.50;14.40;;;;;;;;;;4995410;28;20110;-74
2023/09/03 02:02:43;;;;;;;22.42;14.20;;;;;;;;;;5003008;28;20018;-74
2023/09/03 02:05:08;;;;;;;29.85;15.85;;;;;;;;;;5004659;28;20014;-74
2023/09/03 02:07:33;;;;;;;25.38;15.38;;;;;;;;;;5002067;28;20026;-74
2023/09/03 02:09:59;;;;;;;27.60;14.43;;;;;;;;;;5002670;28;20025;-74
2023/09/03 02:12:24;;;;;;;24.80;14.57;;;;;;;;;;5002283;28;20387;-74
2023/09/03 02:14:50;;;;;;;25.48;15.50;;;;;;;;;;5008616;28;20347;-74
2023/09/03 02:17:19;;;;;;;35.10;15.52;;;;;;;;;;4990330;28;20404;-74
2023/09/03 02:19:44;;;;;;;30.48;15.02;;;;;;;;;;5002583;28;20045;-74
2023/09/03 02:22:09;;;;;;;27.60;15.73;;;;;;;;;;5000462;28;20352;-74
2023/09/03 02:24:35;;;;;;;24.37;14.67;;;;;;;;;;5002176;28;20030;-74
2023/09/03 02:27:00;;;;;;;28.50;16.07;;;;;;;;;;5007027;28;20327;-74
2023/09/03 02:29:25;;;;;;;31.05;15.15;;;;;;;;;;4998889;28;20395;-74
2023/09/03 02:31:50;;;;;;;27.35;15.40;;;;;;;;;;5004167;28;20026;-74
2023/09/03 02:34:15;;;;;;;25.10;15.00;;;;;;;;;;5006059;28;20172;-74
2023/09/03 02:36:41;;;;;;;32.03;14.90;;;;;;;;;;5003960;28;20022;-73
2023/09/03 02:39:06;;;;;;;25.03;15.23;;;;;;;;;;5001310;28;20372;-74
2023/09/03 02:41:32;;;;;;;27.40;15.57;;;;;;;;;;5001503;28;20359;-74
2023/09/03 02:43:58;;;;;;;22.80;14.02;;;;;;;;;;4997708;28;20018;-74
2023/09/03 02:46:24;;;;;;;30.25;14.20;;;;;;;;;;5003388;28;20356;-74
2023/09/03 02:48:50;;;;;;;22.48;13.73;;;;;;;;;;5009710;28;20701;-74
2023/09/03 02:51:15;;;;;;;27.75;12.88;;;;;;;;;;5000749;28;20044;-74
2023/09/03 02:53:42;;;;;;;25.67;13.90;;;;;;;;;;5008325;28;20025;-74
2023/09/03 02:56:08;;;;;;;25.33;12.98;;;;;;;;;;5007403;28;20045;-74
2023/09/03 02:58:33;;;;;;;29.83;13.63;;;;;;;;;;5002633;28;20025;-74
2023/09/03 03:01:02;;;;;;;23.67;13.53;;;;;;;;;;5006000;28;20284;-74
2023/09/03 03:03:28;;;;;;;26.77;13.27;;;;;;;;;;5009798;28;20268;-74
2023/09/03 03:05:53;;;;;;;24.67;15.20;;;;;;;;;;5008241;28;20398;-74
2023/09/03 03:08:19;;;;;;;25.47;12.63;;;;;;;;;;5003628;28;20034;-74
2023/09/03 03:10:44;;;;;;;25.67;14.53;;;;;;;;;;5011833;28;20777;-74
2023/09/03 03:13:09;;;;;;;24.77;13.33;;;;;;;;;;5003901;28;20332;-73
2023/09/03 03:15:35;;;;;;;26.57;15.20;;;;;;;;;;5007573;28;20376;-74
2023/09/03 03:18:00;;;;;;;23.25;13.57;;;;;;;;;;5004312;28;20375;-73
2023/09/03 03:20:25;;;;;;;40.00;14.23;;;;;;;;;;5006908;28;20026;-74
2023/09/03 03:22:50;;;;;;;22.95;12.00;;;;;;;;;;5003892;28;20272;-73
2023/09/03 03:25:16;;;;;;;27.58;13.18;;;;;;;;;;5001016;28;20101;-74
2023/09/03 03:27:41;;;;;;;25.27;13.85;;;;;;;;;;5007498;28;20121;-73
2023/09/03 03:30:06;;;;;;;22.10;12.93;;;;;;;;;;5004418;28;20422;-73
2023/09/03 03:32:31;;;;;;;23.20;12.82;;;;;;;;;;5011592;28;20026;-74
2023/09/03 03:34:57;;;;;;;23.57;12.93;;;;;;;;;;5008006;28;20096;-74
2023/09/03 03:37:22;;;;;;;22.45;12.85;;;;;;;;;;5010694;28;20269;-73
2023/09/03 03:39:50;;;;;;;24.25;14.00;;;;;;;;;;5008831;28;20096;-74
2023/09/03 03:42:16;;;;;;;27.27;13.63;;;;;;;;;;5011100;28;20033;-74
2023/09/03 03:44:41;;;;;;;24.02;13.65;;;;;;;;;;5011783;28;20014;-73
2023/09/03 03:47:06;;;;;;;26.03;13.90;;;;;;;;;;5010546;28;20052;-74
2023/09/03 03:49:31;;;;;;;25.30;13.17;;;;;;;;;;5009377;28;20399;-73
2023/09/03 03:51:57;;;;;;;30.07;13.83;;;;;;;;;;5010590;28;20275;-73
2023/09/03 03:54:22;;;;;;;26.80;13.53;;;;;;;;;;5006799;28;20273;-74
2023/09/03 03:56:47;;;;;;;21.90;12.57;;;;;;;;;;5007547;28;20686;-74
2023/09/03 03:59:12;;;;;;;31.80;14.17;;;;;;;;;;5009727;28;20283;-74
2023/09/03 04:01:37;;;;;;;23.13;12.63;;;;;;;;;;5003855;28;20435;-74
2023/09/03 04:04:03;;;;;;;25.77;14.30;;;;;;;;;;5008144;28;20389;-74
2023/09/03 04:06:30;;;;;;;21.92;13.10;;;;;;;;;;5006822;28;20034;-74
2023/09/03 04:08:56;;;;;;;23.33;12.73;;;;;;;;;;5008873;28;20030;-73
2023/09/03 04:11:23;;;;;;;24.03;14.03;;;;;;;;;;5010938;28;20042;-74
2023/09/03 04:13:48;;;;;;;27.02;13.50;;;;;;;;;;5009379;28;20036;-74
2023/09/03 04:16:14;;;;;;;30.45;13.90;;;;;;;;;;5010256;28;20112;-73
2023/09/03 04:18:40;;;;;;;26.95;13.80;;;;;;;;;;5002099;28;20108;-74
2023/09/03 04:21:06;;;;;;;25.50;12.73;;;;;;;;;;5006136;28;20471;-74
2023/09/03 04:23:31;;;;;;;24.63;13.20;;;;;;;;;;5006401;28;20026;-74
2023/09/03 04:25:57;;;;;;;26.50;14.20;;;;;;;;;;5009570;28;20297;-73
2023/09/03 04:28:23;;;;;;;21.80;12.23;;;;;;;;;;5006956;28;20356;-73
2023/09/03 04:30:51;;;;;;;25.80;14.27;;;;;;;;;;5005620;28;20152;-74
2023/09/03 04:33:17;;;;;;;29.27;15.15;;;;;;;;;;5004561;28;20022;-74
2023/09/03 04:35:42;;;;;;;27.75;14.02;;;;;;;;;;5009636;28;20390;-74
2023/09/03 04:38:08;;;;;;;33.57;13.43;;;;;;;;;;5009243;28;20061;-73
2023/09/03 04:40:33;;;;;;;25.17;13.30;;;;;;;;;;5010703;28;20249;-74
2023/09/03 04:42:59;;;;;;;31.80;14.40;;;;;;;;;;5007534;28;20381;-74
2023/09/03 04:45:24;;;;;;;35.13;13.18;;;;;;;;;;5006955;28;20103;-74
2023/09/03 04:47:49;;;;;;;29.93;14.23;;;;;;;;;;5006260;28;20033;-74
2023/09/03 04:50:14;;;;;;;26.60;13.38;;;;;;;;;;5003114;28;20272;-74
2023/09/03 04:52:42;;;;;;;26.00;14.93;;;;;;;;;;5006915;28;20106;-74
2023/09/03 04:55:07;;;;;;;27.55;13.65;;;;;;;;;;5007887;28;20283;-74
2023/09/03 04:57:32;;;;;;;27.48;13.77;;;;;;;;;;5008894;28;20018;-74
2023/09/03 04:59:58;;;;;;;29.93;14.23;;;;;;;;;;5001681;28;20025;-74
2023/09/03 05:02:23;;;;;;;31.47;14.47;;;;;;;;;;5004919;28;20030;-74
2023/09/03 05:04:48;;;;;;;33.13;16.07;;;;;;;;;;5002164;28;20063;-74
2023/09/03 05:07:13;;;;;;;32.73;15.63;;;;;;;;;;5006358;28;20299;-74
2023/09/03 05:09:38;;;;;;;50.27;17.40;;;;;;;;;;5008823;28;20343;-74
2023/09/03 05:12:03;;;;;;;34.80;16.07;;;;;;;;;;5008684;28;20758;-74
2023/09/03 05:14:29;;;;;;;31.67;15.70;;;;;;;;;;5004396;28;20268;-74
2023/09/03 05:16:54;;;;;;;32.97;16.83;;;;;;;;;;5003427;28;20033;-74
2023/09/03 05:19:19;;;;;;;35.70;17.07;;;;;;;;;;5004328;28;20269;-74
2023/09/03 05:21:44;;;;;;;33.57;16.73;;;;;;;;;;5001320;28;20443;-74
2023/09/03 05:24:10;;;;;;;32.97;16.60;;;;;;;;;;5003005;28;20022;-73
2023/09/03 05:26:36;;;;;;;37.88;18.80;;;;;;;;;;5007101;28;20535;-74
2023/09/03 05:29:01;;;;;;;40.85;19.77;;;;;;;;;;5006957;28;20651;-74
2023/09/03 05:31:27;;;;;;;51.27;21.10;;;;;;;;;;5010553;28;20014;-74
2023/09/03 05:33:52;;;;;;;47.35;22.15;;;;;;;;;;5004653;28;20316;-74
2023/09/03 05:36:17;;;;;;;39.97;19.47;;;;;;;;;;5006544;28;20058;-74
2023/09/03 05:38:42;;;;;;;46.72;22.40;;;;;;;;;;5010457;28;20770;-74
2023/09/03 05:41:11;;;;;;;45.97;20.85;;;;;;;;;;5009135;28;20010;-74
2023/09/03 05:43:36;;;;;;;39.92;20.20;;;;;;;;;;5005608;28;20026;-74
2023/09/03 05:46:02;;;;;;;76.38;23.48;;;;;;;;;;5005472;28;20497;-74
2023/09/03 05:48:27;;;;;;;59.97;20.17;;;;;;;;;;5005516;28;20025;-74
2023/09/03 05:51:03;;;;;;;59.93;20.57;;;;;;;;;;5005371;28;20113;-74
2023/09/03 05:53:29;;;;;;;56.28;22.42;;;;;;;;;;5007480;28;20277;-73
2023/09/03 05:56:02;;;;;;;59.55;22.45;;;;;;;;;;5009487;28;20105;-73
2023/09/03 05:58:27;;;;;;;46.33;20.88;;;;;;;;;;5001286;28;20423;-74
2023/09/03 06:00:53;;;;;;;50.47;21.67;;;;;;;;;;4995999;28;20022;-74
2023/09/03 06:03:18;;;;;;;54.10;22.03;;;;;;;;;;5001364;28;20265;-74
2023/09/03 06:05:43;;;;;;;46.43;21.83;;;;;;;;;;5003800;28;20450;-74
2023/09/03 06:08:08;;;;;;;55.23;23.77;;;;;;;;;;5002227;28;20338;-73
2023/09/03 06:10:33;;;;;;;56.73;21.73;;;;;;;;;;5003807;28;20272;-74
2023/09/03 06:12:58;;;;;;;74.50;22.63;;;;;;;;;;5004032;28;20774;-74
2023/09/03 06:15:25;;;;;;;57.60;21.97;;;;;;;;;;5005012;28;20406;-74
2023/09/03 06:17:53;;;;;;;48.67;21.00;;;;;;;;;;5003126;28;20261;-74
2023/09/03 06:20:18;;;;;;;57.03;22.98;;;;;;;;;;5006251;28;20104;-74
2023/09/03 06:22:43;;;;;;;55.43;23.53;;;;;;;;;;5000721;28;20097;-74
2023/09/03 06:25:08;;;;;;;58.93;22.87;;;;;;;;;;5003484;28;20605;-74
2023/09/03 06:27:33;;;;;;;53.27;23.17;;;;;;;;;;5008505;28;20633;-74
2023/09/03 06:29:58;;;;;;;62.47;24.63;;;;;;;;;;5001190;28;20121;-75
2023/09/03 06:32:24;;;;;;;57.60;23.30;;;;;;;;;;5006658;28;20270;-75
2023/09/03 06:34:49;;;;;;;50.72;23.00;;;;;;;;;;5006718;28;20273;-74
2023/09/03 06:37:14;;;;;;;57.08;23.20;;;;;;;;;;5012646;28;20495;-74
2023/09/03 06:39:41;;;;;;;51.25;22.65;;;;;;;;;;5010423;28;20022;-73
2023/09/03 06:42:06;;;;;;;53.25;23.48;;;;;;;;;;5007635;28;20516;-74
2023/09/03 06:44:33;;;;;;;63.92;24.05;;;;;;;;;;5010935;28;20092;-74
2023/09/03 06:46:58;;;;;;;52.58;23.25;;;;;;;;;;5010856;28;20107;-74
2023/09/03 06:49:23;;;;;;;50.90;23.27;;;;;;;;;;5013538;28;20287;-73
2023/09/03 06:51:50;;;;;;;53.65;22.80;;;;;;;;;;5013422;28;20706;-74
2023/09/03 06:54:15;;;;;;;49.95;22.67;;;;;;;;;;5006781;28;20064;-74
2023/09/03 06:56:40;;;;;;;53.22;23.83;;;;;;;;;;5007114;28;20022;-74
2023/09/03 06:59:06;;;;;;;55.57;23.83;;;;;;;;;;5005423;28;20019;-74
2023/09/03 07:01:31;;;;;;;54.87;24.50;;;;;;;;;;5003816;28;20527;-73
2023/09/03 07:03:57;;;;;;;57.75;23.85;;;;;;;;;;5002675;28;20281;-73
2023/09/03 07:06:22;;;;;;;60.58;24.15;;;;;;;;;;5004890;28;20081;-73
2023/09/03 07:08:47;;;;;;;58.08;24.35;;;;;;;;;;5006263;28;20455;-74
2023/09/03 07:11:12;;;;;;;52.60;23.93;;;;;;;;;;5004551;28;20101;-73
2023/09/03 07:13:37;;;;;;;53.67;23.73;;;;;;;;;;5011356;28;20253;-73
2023/09/03 07:16:04;;;;;;;56.20;22.70;;;;;;;;;;5007338;28;20762;-73
2023/09/03 07:18:29;;;;;;;48.15;22.75;;;;;;;;;;5012534;28;20947;-74
2023/09/03 07:21:04;;;;;;;54.47;24.93;;;;;;;;;;5010285;28;20026;-73
2023/09/03 07:23:30;;;;;;;49.95;23.52;;;;;;;;;;5006148;28;20295;-74
2023/09/03 07:25:59;;;;;;;55.60;23.38;;;;;;;;;;5012848;28;20422;-73
2023/09/03 07:28:24;;;;;;;52.23;23.83;;;;;;;;;;5009435;28;20052;-74
2023/09/03 07:30:49;;;;;;;49.63;22.50;;;;;;;;;;5004891;28;20477;-73
2023/09/03 07:33:14;;;;;;;50.88;24.08;;;;;;;;;;5006746;28;20363;-73
2023/09/03 07:35:40;;;;;;;53.67;23.97;;;;;;;;;;5008227;28;20105;-73
2023/09/03 07:38:05;;;;;;;44.20;20.87;;;;;;;;;;5012264;28;20255;-73
2023/09/03 07:40:30;;;;;;;47.58;22.77;;;;;;;;;;5008777;28;20467;-73
2023/09/03 07:42:56;;;;;;;54.30;23.80;;;;;;;;;;4997065;28;20018;-73
2023/09/03 07:45:21;;;;;;;42.50;23.00;;;;;;;;;;5008698;28;20129;-73
2023/09/03 07:47:46;;;;;;;50.90;24.47;;;;;;;;;;5008358;28;20034;-73
2023/09/03 07:50:11;;;;;;;43.10;22.88;;;;;;;;;;5003163;28;20877;-74
2023/09/03 07:52:36;;;;;;;41.72;20.35;;;;;;;;;;5012240;28;20017;-73
2023/09/03 07:55:02;;;;;;;41.67;20.17;;;;;;;;;;5012599;28;20025;-73
2023/09/03 07:57:31;;;;;;;43.13;21.83;;;;;;;;;;5012135;28;20575;-73
2023/09/03 07:59:56;;;;;;;42.83;21.08;;;;;;;;;;5009237;28;20065;-73
2023/09/03 08:02:23;;;;;;;40.83;19.75;;;;;;;;;;5006804;28;20053;-73
2023/09/03 08:04:48;;;;;;;44.58;21.15;;;;;;;;;;5006935;28;20025;-73
2023/09/03 08:07:13;;;;;;;53.33;24.13;;;;;;;;;;5008713;28;20034;-73
2023/09/03 08:09:38;;;;;;;43.70;20.10;;;;;;;;;;5011794;28;20164;-73
2023/09/03 08:12:04;;;;;;;38.63;18.73;;;;;;;;;;5010087;28;20029;-73
2023/09/03 08:14:29;;;;;;;41.03;19.63;;;;;;;;;;5001405;28;20061;-73
2023/09/03 08:16:54;;;;;;;38.07;20.07;;;;;;;;;;5009342;28;20025;-73
2023/09/03 08:19:19;;;;;;;39.43;20.30;;;;;;;;;;5002381;28;20268;-73
2023/09/03 08:21:45;;;;;;;32.13;17.40;;;;;;;;;;5004897;28;20284;-73
2023/09/03 08:24:10;;;;;;;37.58;18.92;;;;;;;;;;4999078;28;20744;-73
2023/09/03 08:26:35;;;;;;;36.00;19.73;;;;;;;;;;4999114;28;20041;-73
2023/09/03 08:29:00;;;;;;;28.85;15.93;;;;;;;;;;5008526;28;20026;-73
2023/09/03 08:31:25;;;;;;;36.70;18.17;;;;;;;;;;5000631;28;20053;-73
2023/09/03 08:33:53;;;;;;;27.90;15.10;;;;;;;;;;4998019;28;20033;-74
2023/09/03 08:36:19;;;;;;;31.55;17.50;;;;;;;;;;4998790;28;20018;-74
2023/09/03 08:38:44;;;;;;;28.17;16.33;;;;;;;;;;5006937;28;20021;-74
2023/09/03 08:41:09;;;;;;;31.35;16.48;;;;;;;;;;5005641;28;20606;-74
2023/09/03 08:43:35;;;;;;;39.53;18.90;;;;;;;;;;4991436;28;20022;-73
2023/09/03 08:46:02;;;;;;;29.23;15.88;;;;;;;;;;5012548;28;20029;-73
2023/09/03 08:48:27;;;;;;;27.77;17.40;;;;;;;;;;4997875;28;20030;-73
2023/09/03 08:50:52;;;;;;;26.67;16.65;;;;;;;;;;5005702;28;20376;-73
2023/09/03 08:53:20;;;;;;;24.25;14.50;;;;;;;;;;4997534;28;20038;-73
2023/09/03 08:55:45;;;;;;;24.63;13.98;;;;;;;;;;4998192;28;20061;-74
2023/09/03 08:58:11;;;;;;;21.30;12.88;;;;;;;;;;5001830;28;20414;-74
2023/09/03 09:00:37;;;;;;;18.98;12.02;;;;;;;;;;5001167;28;20101;-74
2023/09/03 09:03:05;;;;;;;19.13;12.18;;;;;;;;;;5003685;28;20014;-74
2023/09/03 09:05:30;;;;;;;15.32;9.60;;;;;;;;;;5006818;28;20025;-74
2023/09/03 09:07:55;;;;;;;22.02;10.45;;;;;;;;;;5001476;28;20059;-74
2023/09/03 09:10:22;;;;;;;19.80;12.52;;;;;;;;;;5000118;28;20022;-74
2023/09/03 09:12:51;;;;;;;15.48;10.65;;;;;;;;;;4999610;28;20132;-74
2023/09/03 09:15:17;;;;;;;19.80;11.40;;;;;;;;;;4996420;28;20503;-74
2023/09/03 09:17:42;;;;;;;15.90;9.97;;;;;;;;;;5003920;28;20066;-74
2023/09/03 09:20:18;;;;;;;13.65;10.00;;;;;;;;;;5003981;28;20277;-74
2023/09/03 09:22:43;;;;;;;16.63;9.55;;;;;;;;;;5001333;28;20020;-74
2023/09/03 09:25:10;;;;;;;14.63;9.87;;;;;;;;;;5002788;28;20445;-74
2023/09/03 09:27:36;;;;;;;16.90;10.20;;;;;;;;;;5005791;28;20128;-74
2023/09/03 09:30:11;;;;;;;14.65;9.43;;;;;;;;;;5008861;28;20022;-74
2023/09/03 09:32:37;;;;;;;16.05;9.07;;;;;;;;;;5010337;28;20499;-74
2023/09/03 09:35:02;;;;;;;12.43;8.40;;;;;;;;;;5008667;28;20032;-74
2023/09/03 09:37:36;;;;;;;14.23;8.60;;;;;;;;;;5005135;28;20076;-74
2023/09/03 09:40:01;;;;;;;15.15;8.73;;;;;;;;;;5009858;28;20021;-74
2023/09/03 09:42:26;;;;;;;16.50;8.80;;;;;;;;;;5010523;28;20383;-74
2023/09/03 09:44:51;;;;;;;10.97;7.87;;;;;;;;;;5010722;28;20267;-74
2023/09/03 09:47:17;;;;;;;12.77;8.13;;;;;;;;;;5010404;28;20671;-74
2023/09/03 09:49:43;;;;;;;11.60;8.10;;;;;;;;;;5009642;28;20069;-74
2023/09/03 09:52:08;;;;;;;12.95;8.15;;;;;;;;;;5009456;28;20029;-74
2023/09/03 09:54:43;;;;;;;12.35;7.97;;;;;;;;;;5008963;28;20028;-74
2023/09/03 09:57:12;;;;;;;10.13;6.82;;;;;;;;;;5010411;28;20026;-74
2023/09/03 09:59:39;;;;;;;13.93;8.43;;;;;;;;;;5010641;28;20511;-74
2023/09/03 10:02:14;;;;;;;15.25;8.02;;;;;;;;;;5009541;28;20026;-74
2023/09/03 10:04:41;;;;;;;12.13;7.63;;;;;;;;;;5010458;28;20030;-74
2023/09/03 10:07:07;;;;;;;15.20;6.63;;;;;;;;;;5003877;28;20037;-74
2023/09/03 10:09:33;;;;;;;12.65;7.45;;;;;;;;;;4984662;28;20491;-74
2023/09/03 10:11:58;;;;;;;11.32;7.20;;;;;;;;;;5010079;28;20009;-74
2023/09/03 10:14:24;;;;;;;10.35;6.70;;;;;;;;;;5010451;28;20018;-74
2023/09/03 10:16:51;;;;;;;9.70;6.15;;;;;;;;;;5008775;28;20032;-74
2023/09/03 10:19:18;;;;;;;9.48;5.72;;;;;;;;;;5004462;28;20026;-74
2023/09/03 10:21:45;;;;;;;8.27;5.60;;;;;;;;;;4997427;28;20032;-74
2023/09/03 10:24:12;;;;;;;9.77;5.75;;;;;;;;;;5002019;28;20087;-74
2023/09/03 10:26:38;;;;;;;8.38;5.63;;;;;;;;;;4983766;28;20030;-74
2023/09/03 10:29:05;;;;;;;6.13;3.97;;;;;;;;;;5005918;28;20050;-74
2023/09/03 10:31:31;;;;;;;7.88;4.30;;;;;;;;;;5002467;28;20326;-74
2023/09/03 10:33:57;;;;;;;5.88;3.67;;;;;;;;;;5004627;28;20056;-74
2023/09/03 10:36:22;;;;;;;3.43;2.80;;;;;;;;;;5004225;28;20058;-73
2023/09/03 10:38:47;;;;;;;5.43;3.28;;;;;;;;;;4999052;28;20743;-74
2023/09/03 10:41:18;;;;;;;5.47;3.27;;;;;;;;;;4998176;28;20110;-74
2023/09/03 10:43:45;;;;;;;7.47;3.60;;;;;;;;;;5002863;28;20049;-74
2023/09/03 10:46:11;;;;;;;4.43;2.72;;;;;;;;;;5002400;28;20022;-74
2023/09/03 10:48:36;;;;;;;3.83;2.75;;;;;;;;;;5009071;28;20099;-74
2023/09/03 10:51:01;;;;;;;5.47;2.53;;;;;;;;;;5009991;28;20018;-74
2023/09/03 10:53:37;;;;;;;3.33;2.20;;;;;;;;;;5009999;28;20014;-75
2023/09/03 10:56:15;;;;;;;5.78;2.50;;;;;;;;;;5010122;28;20063;-74
2023/09/03 10:58:53;;;;;;;4.97;2.83;;;;;;;;;;5003796;28;20030;-74
2023/09/03 11:01:31;;;;;;;5.07;2.55;;;;;;;;;;5003902;28;20018;-74
2023/09/03 11:03:56;;;;;;;2.70;2.30;;;;;;;;;;4992336;28;20018;-74
2023/09/03 11:06:22;;;;;;;7.88;2.10;;;;;;;;;;5013096;28;20101;-74
2023/09/03 11:09:09;;;;;;;3.70;2.25;;;;;;;;;;5002514;28;20037;-74
2023/09/03 11:11:35;;;;;;;2.55;1.73;;;;;;;;;;4994047;28;20049;-74
2023/09/03 11:14:01;;;;;;;4.53;1.85;;;;;;;;;;5004708;28;20026;-74
2023/09/03 11:16:30;;;;;;;5.57;1.88;;;;;;;;;;5009853;28;20529;-74
2023/09/03 11:18:56;;;;;;;4.47;1.85;;;;;;;;;;5012739;28;20101;-74
2023/09/03 11:21:24;;;;;;;5.43;2.03;;;;;;;;;;5009320;28;20109;-74
2023/09/03 11:24:05;;;;;;;2.55;1.90;;;;;;;;;;5010812;28;20022;-74
2023/09/03 11:26:31;;;;;;;3.03;2.10;;;;;;;;;;5006502;28;20029;-74
2023/09/03 11:28:57;;;;;;;5.13;2.05;;;;;;;;;;5001737;28;20022;-74
2023/09/03 11:31:23;;;;;;;4.25;2.30;;;;;;;;;;4998280;28;20121;-74
2023/09/03 11:33:50;;;;;;;2.38;1.77;;;;;;;;;;5001933;28;20049;-74
2023/09/03 11:36:15;;;;;;;3.30;2.10;;;;;;;;;;5000518;28;20506;-74
2023/09/03 11:38:41;;;;;;;3.88;2.15;;;;;;;;;;5008905;28;20533;-74
2023/09/03 11:41:07;;;;;;;4.40;2.17;;;;;;;;;;5003697;28;20022;-74
2023/09/03 11:43:34;;;;;;;3.08;1.90;;;;;;;;;;5006861;28;20289;-74
2023/09/03 11:46:01;;;;;;;2.88;2.15;;;;;;;;;;5006693;28;20036;-74
2023/09/03 11:48:29;;;;;;;3.33;1.98;;;;;;;;;;4999410;28;20037;-74
2023/09/03 11:50:55;;;;;;;5.25;2.58;;;;;;;;;;5001650;28;20022;-74
2023/09/03 11:53:23;;;;;;;4.88;2.58;;;;;;;;;;5003230;28;20046;-75
2023/09/03 11:55:50;;;;;;;2.38;1.70;;;;;;;;;;5001067;28;20030;-74
2023/09/03 11:58:18;;;;;;;2.80;1.95;;;;;;;;;;5008062;28;20025;-74
2023/09/03 12:00:44;;;;;;;3.78;2.20;;;;;;;;;;5011052;28;20017;-74
2023/09/03 12:03:10;;;;;;;5.40;2.30;;;;;;;;;;4993967;28;20475;-74
2023/09/03 12:05:35;;;;;;;3.65;2.50;;;;;;;;;;5006240;28;20120;-74
2023/09/03 12:08:02;;;;;;;3.05;2.00;;;;;;;;;;5005850;28;20156;-74
2023/09/03 12:10:27;;;;;;;2.88;2.05;;;;;;;;;;5006022;28;20044;-74
2023/09/03 12:12:53;;;;;;;4.38;2.40;;;;;;;;;;5005427;28;20503;-74
2023/09/03 12:15:19;;;;;;;3.10;2.15;;;;;;;;;;5006902;28;20032;-74
2023/09/03 12:17:44;;;;;;;3.08;2.35;;;;;;;;;;5006282;28;20014;-74
2023/09/03 12:20:29;;;;;;;4.72;2.80;;;;;;;;;;4999480;28;20549;-74
2023/09/03 12:22:54;;;;;;;3.38;1.90;;;;;;;;;;5007560;28;20439;-74
2023/09/03 12:25:19;;;;;;;3.83;2.40;;;;;;;;;;5003687;28;20092;-74
2023/09/03 12:27:48;;;;;;;4.07;2.37;;;;;;;;;;5007601;28;20025;-74
2023/09/03 12:30:13;;;;;;;3.75;1.95;;;;;;;;;;5000055;28;20262;-74
2023/09/03 12:32:38;;;;;;;4.43;2.20;;;;;;;;;;4996948;28;20092;-74
2023/09/03 12:35:14;;;;;;;4.35;2.10;;;;;;;;;;5003757;28;20123;-74
2023/09/03 12:37:42;;;;;;;3.13;1.85;;;;;;;;;;5006743;28;20419;-74
2023/09/03 12:40:07;;;;;;;3.45;2.00;;;;;;;;;;5008474;28;20084;-74
2023/09/03 12:42:33;;;;;;;3.92;2.33;;;;;;;;;;4995710;28;20018;-75
2023/09/03 12:44:58;;;;;;;2.63;1.95;;;;;;;;;;5002945;28;20034;-74
2023/09/03 12:47:23;;;;;;;4.90;2.10;;;;;;;;;;5000993;28;20029;-74
2023/09/03 12:49:48;;;;;;;3.83;2.25;;;;;;;;;;5001085;28;20068;-74
2023/09/03 12:52:13;;;;;;;3.17;2.20;;;;;;;;;;4998581;28;20054;-74
2023/09/03 12:54:39;;;;;;;3.83;2.47;;;;;;;;;;5002747;28;20534;-74
2023/09/03 12:57:04;;;;;;;4.47;2.33;;;;;;;;;;4998560;28;20041;-74
2023/09/03 12:59:29;;;;;;;3.95;2.60;;;;;;;;;;5001965;28;20487;-74
2023/09/03 13:01:55;;;;;;;4.30;2.30;;;;;;;;;;5008356;28;20053;-74
2023/09/03 13:04:20;;;;;;;4.10;2.70;;;;;;;;;;4997139;28;20029;-74
2023/09/03 13:06:45;;;;;;;3.30;2.10;;;;;;;;;;5003896;28;20505;-74
2023/09/03 13:09:10;;;;;;;3.55;2.47;;;;;;;;;;5001386;28;20029;-74
2023/09/03 13:11:36;;;;;;;4.87;2.43;;;;;;;;;;5008642;28;20140;-74
2023/09/03 13:14:01;;;;;;;7.72;2.67;;;;;;;;;;5009135;28;20022;-74
2023/09/03 13:16:29;;;;;;;4.75;2.40;;;;;;;;;;5008500;28;20030;-74
2023/09/03 13:18:55;;;;;;;4.70;2.35;;;;;;;;;;5005666;28;20037;-74
2023/09/03 13:21:20;;;;;;;3.53;2.20;;;;;;;;;;5004060;28;20391;-74
2023/09/03 13:23:46;;;;;;;4.22;2.38;;;;;;;;;;5006415;28;20025;-74
2023/09/03 13:26:11;;;;;;;6.47;2.47;;;;;;;;;;5008048;28;20241;-74
2023/09/03 13:28:39;;;;;;;3.87;2.50;;;;;;;;;;4998698;28;20402;-74
2023/09/03 13:31:05;;;;;;;5.47;2.45;;;;;;;;;;5006263;28;20025;-74
2023/09/03 13:33:31;;;;;;;5.03;2.45;;;;;;;;;;4998560;28;20050;-74
2023/09/03 13:35:56;;;;;;;5.00;2.30;;;;;;;;;;5010075;28;20025;-74
2023/09/03 13:38:22;;;;;;;5.35;2.88;;;;;;;;;;5010322;28;20018;-74
2023/09/03 13:40:51;;;;;;;4.05;2.38;;;;;;;;;;5005427;28;20467;-74
2023/09/03 13:43:17;;;;;;;6.72;2.75;;;;;;;;;;5006548;28;20018;-74
2023/09/03 13:45:59;;;;;;;5.60;2.70;;;;;;;;;;5009358;28;20036;-74
2023/09/03 13:48:24;;;;;;;5.78;2.95;;;;;;;;;;5008045;28;20305;-74
2023/09/03 13:50:51;;;;;;;5.30;3.00;;;;;;;;;;5010613;28;20092;-74
2023/09/03 13:53:16;;;;;;;8.32;2.70;;;;;;;;;;4992602;28;20493;-74
2023/09/03 13:55:42;;;;;;;8.10;2.75;;;;;;;;;;5003935;28;20034;-74
2023/09/03 13:58:07;;;;;;;5.77;2.77;;;;;;;;;;5006277;28;20478;-74
2023/09/03 14:00:32;;;;;;;5.73;2.60;;;;;;;;;;5010377;28;20022;-74
2023/09/03 14:02:57;;;;;;;3.88;2.85;;;;;;;;;;5005882;28;20014;-74
2023/09/03 14:05:23;;;;;;;6.33;2.53;;;;;;;;;;5005285;28;20025;-74
2023/09/03 14:07:48;;;;;;;4.45;2.53;;;;;;;;;;5006355;28;20014;-74
2023/09/03 14:10:13;;;;;;;4.82;2.63;;;;;;;;;;5002889;28;20026;-74
2023/09/03 14:12:39;;;;;;;9.70;2.50;;;;;;;;;;5006003;28;20395;-74
2023/09/03 14:15:05;;;;;;;3.17;2.20;;;;;;;;;;5003532;28;20065;-74
2023/09/03 14:17:30;;;;;;;4.78;3.13;;;;;;;;;;5004763;28;20281;-74
2023/09/03 14:19:55;;;;;;;3.67;2.63;;;;;;;;;;5010098;28;20037;-74
2023/09/03 14:22:21;;;;;;;4.33;2.70;;;;;;;;;;5009649;28;20261;-74